Time;durP1;ratioP1;P1;durP2;ratioP2;P2;SDS_P1;SDS_P2;PMS_P1;PMS_P2;Temp;Humidity;BMP_temperature;BMP_pressure;BME280_temperature;BME280_humidity;BME280_pressure;Samples;Min_cycle;Max_cycle;Signal;HPM_P1;HPM_P2
2023/10/17 00:02:22;;;;;;;14.60;10.90;;;3.50;99.90;;;;;;5015749;28;20091;-86
2023/10/17 00:04:47;;;;;;;15.23;10.43;;;3.50;99.90;;;;;;5015614;28;20026;-87
2023/10/17 00:07:13;;;;;;;12.03;9.60;;;3.50;99.90;;;;;;5016779;28;21423;-87
2023/10/17 00:09:39;;;;;;;14.30;10.00;;;3.50;99.90;;;;;;5015218;28;20496;-87
2023/10/17 00:14:57;;;;;;;;;;;3.50;99.90;;;;;;5015453;28;20055;-87
2023/10/17 00:17:22;;;;;;;14.17;9.57;;;3.40;99.90;;;;;;5014569;28;21343;-87
2023/10/17 00:19:51;;;;;;;12.70;9.60;;;3.50;99.90;;;;;;5015832;28;20030;-86
2023/10/17 00:22:23;;;;;;;16.20;10.33;;;3.50;99.90;;;;;;5017119;28;20041;-87
2023/10/17 00:24:54;;;;;;;15.00;10.67;;;3.50;99.90;;;;;;5016062;28;20077;-86
2023/10/17 00:27:19;;;;;;;14.47;10.73;;;3.50;99.90;;;;;;5016118;28;20034;-87
2023/10/17 00:29:45;;;;;;;14.37;10.13;;;3.50;99.90;;;;;;5016675;28;20037;-87
2023/10/17 00:32:12;;;;;;;14.40;10.07;;;3.50;99.90;;;;;;5017073;28;20622;-87
2023/10/17 00:34:40;;;;;;;14.67;11.07;;;3.40;99.90;;;;;;5018144;28;20153;-87
2023/10/17 00:37:14;;;;;;;17.07;10.60;;;3.50;99.90;;;;;;5019590;28;21387;-87
2023/10/17 00:39:39;;;;;;;12.73;10.23;;;3.40;99.90;;;;;;5025528;28;21727;-89
2023/10/17 00:44:33;;;;;;;12.67;9.93;;;3.40;99.90;;;;;;5040962;28;20033;-88
2023/10/17 00:47:00;;;;;;;15.40;10.83;;;3.40;99.90;;;;;;5036837;28;20527;-87
2023/10/17 00:49:29;;;;;;;13.33;10.00;;;3.30;99.90;;;;;;5018584;28;20029;-87
2023/10/17 00:51:56;;;;;;;15.90;10.67;;;3.30;99.90;;;;;;5017350;28;20044;-87
2023/10/17 00:54:26;;;;;;;14.40;10.57;;;3.30;99.90;;;;;;5019111;28;20038;-87
2023/10/17 00:56:55;;;;;;;13.10;10.50;;;3.30;99.90;;;;;;5019704;28;20439;-87
2023/10/17 00:59:24;;;;;;;18.53;10.77;;;3.20;99.90;;;;;;5026601;28;21029;-86
2023/10/17 01:01:51;;;;;;;14.93;10.47;;;3.20;99.90;;;;;;5018184;28;20116;-86
2023/10/17 01:04:19;;;;;;;12.87;10.33;;;3.20;99.90;;;;;;5013974;28;20034;-87
2023/10/17 01:06:54;;;;;;;15.43;11.20;;;3.10;99.90;;;;;;5014244;28;20033;-87
2023/10/17 01:09:24;;;;;;;15.40;10.63;;;3.10;99.90;;;;;;5016192;28;20124;-88
2023/10/17 01:11:50;;;;;;;13.97;10.40;;;3.10;99.90;;;;;;5016201;28;20029;-87
2023/10/17 01:14:18;;;;;;;13.40;10.57;;;3.00;99.90;;;;;;5013807;28;20167;-87
2023/10/17 01:16:51;;;;;;;14.53;10.50;;;3.00;99.90;;;;;;5014718;28;20168;-88
2023/10/17 01:19:21;;;;;;;14.50;10.53;;;3.00;99.90;;;;;;5014050;28;20074;-87
2023/10/17 01:21:49;;;;;;;18.63;11.33;;;2.90;99.90;;;;;;5013341;28;20030;-87
2023/10/17 01:24:16;;;;;;;16.40;10.60;;;2.90;99.90;;;;;;5014582;28;20037;-87
2023/10/17 01:26:45;;;;;;;14.07;10.40;;;2.80;99.90;;;;;;5013640;28;20101;-87
2023/10/17 01:29:11;;;;;;;16.53;11.60;;;2.80;99.90;;;;;;5013883;28;20648;-87
2023/10/17 01:31:41;;;;;;;13.33;10.60;;;2.80;99.90;;;;;;5015017;28;20033;-88
2023/10/17 01:34:08;;;;;;;15.87;11.17;;;2.70;99.90;;;;;;5013289;28;20400;-87
2023/10/17 01:36:35;;;;;;;13.77;11.30;;;2.70;99.90;;;;;;5013590;28;20104;-87
2023/10/17 01:39:05;;;;;;;13.40;11.17;;;2.70;99.90;;;;;;5015074;28;20037;-88
2023/10/17 01:41:31;;;;;;;16.13;11.20;;;2.70;99.90;;;;;;5014434;28;21525;-88
2023/10/17 01:43:57;;;;;;;15.80;11.47;;;2.70;99.90;;;;;;5015731;28;20110;-87
2023/10/17 01:46:23;;;;;;;17.40;11.53;;;2.70;99.90;;;;;;5015089;28;20041;-87
2023/10/17 01:48:53;;;;;;;19.40;12.30;;;2.70;99.90;;;;;;5014939;28;20048;-87
2023/10/17 01:51:19;;;;;;;15.93;12.10;;;2.70;99.90;;;;;;5013421;28;20163;-87
2023/10/17 01:53:50;;;;;;;17.53;12.17;;;2.70;99.90;;;;;;5012495;28;20108;-87
2023/10/17 01:56:16;;;;;;;14.40;11.40;;;2.70;99.90;;;;;;5014551;28;20030;-87
2023/10/17 01:58:46;;;;;;;16.70;11.73;;;2.70;99.90;;;;;;5014283;28;20411;-87
2023/10/17 02:01:14;;;;;;;20.80;12.10;;;2.60;99.90;;;;;;5012302;28;20100;-87
2023/10/17 02:03:40;;;;;;;15.67;11.93;;;2.60;99.90;;;;;;5012586;28;20026;-87
2023/10/17 02:06:14;;;;;;;16.97;11.67;;;2.60;99.90;;;;;;5012601;28;20455;-87
2023/10/17 02:08:44;;;;;;;17.58;12.07;;;2.60;99.90;;;;;;5013378;28;20961;-86
2023/10/17 02:11:23;;;;;;;15.83;11.97;;;2.60;99.90;;;;;;5011858;28;20164;-87
2023/10/17 02:13:49;;;;;;;16.07;11.93;;;2.60;99.90;;;;;;5014534;28;20074;-87
2023/10/17 02:16:15;;;;;;;16.00;12.80;;;2.50;99.90;;;;;;5013645;28;20030;-87
2023/10/17 02:18:41;;;;;;;20.73;12.77;;;2.50;99.90;;;;;;5014568;28;20025;-87
2023/10/17 02:21:06;;;;;;;16.57;12.23;;;2.50;99.90;;;;;;5014097;28;20045;-88
2023/10/17 02:23:39;;;;;;;16.97;12.00;;;2.50;99.90;;;;;;5014710;28;20025;-87
2023/10/17 02:26:10;;;;;;;16.70;11.93;;;2.50;99.90;;;;;;5014332;28;20076;-87
2023/10/17 02:28:44;;;;;;;17.73;12.30;;;2.50;99.90;;;;;;5012996;28;20033;-87
2023/10/17 02:31:12;;;;;;;15.87;11.70;;;2.50;99.90;;;;;;5013712;28;20527;-87
2023/10/17 02:33:41;;;;;;;18.50;12.60;;;2.40;99.90;;;;;;5013847;28;20272;-87
2023/10/17 02:36:13;;;;;;;20.50;13.50;;;2.40;99.90;;;;;;5013269;28;20064;-87
2023/10/17 02:38:40;;;;;;;19.17;12.33;;;2.40;99.90;;;;;;5013190;28;20037;-87
2023/10/17 02:41:09;;;;;;;19.53;12.37;;;2.40;99.90;;;;;;5014271;28;20026;-87
2023/10/17 02:43:37;;;;;;;16.50;11.90;;;2.40;99.90;;;;;;5012218;28;20033;-87
2023/10/17 02:46:04;;;;;;;16.37;11.70;;;2.40;99.90;;;;;;5014143;28;20097;-88
2023/10/17 02:48:37;;;;;;;18.23;11.40;;;2.30;99.90;;;;;;5017146;28;20112;-87
2023/10/17 02:51:03;;;;;;;20.07;11.23;;;2.30;99.90;;;;;;5017870;28;20111;-87
2023/10/17 02:53:30;;;;;;;18.17;11.10;;;2.30;99.90;;;;;;5035443;28;20026;-87
2023/10/17 02:55:57;;;;;;;18.30;10.83;;;2.20;99.90;;;;;;5018529;28;20044;-86
2023/10/17 02:58:22;;;;;;;16.00;12.20;;;2.20;99.90;;;;;;5017893;28;20029;-87
2023/10/17 03:00:48;;;;;;;14.80;10.83;;;2.20;99.90;;;;;;5016472;28;20033;-87
2023/10/17 03:03:14;;;;;;;16.07;11.77;;;2.20;99.90;;;;;;5016368;28;20080;-87
2023/10/17 03:05:41;;;;;;;17.57;11.83;;;2.10;99.90;;;;;;5016548;28;20032;-87
2023/10/17 03:08:15;;;;;;;16.60;11.30;;;2.10;99.90;;;;;;5017271;28;20053;-87
2023/10/17 03:10:42;;;;;;;15.60;11.20;;;2.10;99.90;;;;;;5018089;28;20033;-87
2023/10/17 03:15:55;;;;;;;16.03;11.23;;;2.00;99.90;;;;;;5017079;28;20041;-87
2023/10/17 03:18:21;;;;;;;16.43;11.57;;;2.00;99.90;;;;;;5018054;28;20045;-87
2023/10/17 03:20:53;;;;;;;16.27;11.17;;;2.00;99.90;;;;;;5017005;28;20038;-87
2023/10/17 03:23:20;;;;;;;15.27;10.67;;;1.90;99.90;;;;;;5018462;28;20026;-87
2023/10/17 03:25:48;;;;;;;14.90;10.20;;;1.90;99.90;;;;;;5017465;28;20108;-87
2023/10/17 03:28:15;;;;;;;15.47;10.80;;;1.90;99.90;;;;;;5018613;28;20451;-87
2023/10/17 03:30:42;;;;;;;15.33;10.93;;;1.90;99.90;;;;;;5019453;28;20388;-87
2023/10/17 03:33:14;;;;;;;14.67;11.67;;;1.80;99.90;;;;;;5019984;28;20037;-87
2023/10/17 03:35:56;;;;;;;17.20;10.73;;;1.70;99.90;;;;;;5025579;28;20017;-87
2023/10/17 03:38:26;;;;;;;14.93;10.70;;;1.70;99.90;;;;;;5039197;28;20473;-87
2023/10/17 03:40:53;;;;;;;14.90;11.37;;;1.70;99.90;;;;;;5041167;28;20013;-86
2023/10/17 03:43:21;;;;;;;16.97;11.00;;;1.70;99.90;;;;;;5030884;28;20120;-86
2023/10/17 03:45:56;;;;;;;14.63;10.83;;;1.60;99.90;;;;;;5015732;28;20034;-87
2023/10/17 03:49:10;;;;;;;14.48;10.38;;;1.60;99.90;;;;;;5017492;28;20040;-87
2023/10/17 03:51:15;;;;;;;14.70;10.77;;;1.60;99.90;;;;;;5008628;28;20081;-87
2023/10/17 03:53:46;;;;;;;15.30;10.93;;;1.50;99.90;;;;;;5018200;28;20133;-87
2023/10/17 03:56:18;;;;;;;14.23;10.90;;;1.50;99.90;;;;;;5014157;28;20776;-87
2023/10/17 03:58:49;;;;;;;16.17;10.90;;;1.50;99.90;;;;;;5013569;28;20076;-88
2023/10/17 04:01:18;;;;;;;16.80;12.00;;;1.40;99.90;;;;;;5017080;28;20025;-87
2023/10/17 04:03:45;;;;;;;15.77;11.30;;;1.40;99.90;;;;;;5017031;28;20124;-87
2023/10/17 04:08:49;;;;;;;15.07;10.97;;;1.40;99.90;;;;;;5015831;28;20049;-87
2023/10/17 04:14:00;;;;;;;15.17;10.60;;;1.30;99.90;;;;;;5017613;28;20497;-86
2023/10/17 04:16:34;;;;;;;15.33;10.97;;;1.30;99.90;;;;;;5019090;28;20117;-86
2023/10/17 04:19:00;;;;;;;22.40;10.60;;;1.30;99.90;;;;;;5018302;28;21532;-86
2023/10/17 04:23:56;;;;;;;16.70;11.53;;;1.30;99.90;;;;;;5017025;28;20077;-86
2023/10/17 04:26:27;;;;;;;14.97;10.30;;;1.20;99.90;;;;;;5012585;28;20496;-86
2023/10/17 04:29:00;;;;;;;16.17;11.40;;;1.20;99.90;;;;;;5015038;28;20570;-86
2023/10/17 04:31:30;;;;;;;15.77;11.33;;;1.20;99.90;;;;;;5014507;28;20025;-87
2023/10/17 04:33:58;;;;;;;15.87;11.40;;;1.20;99.90;;;;;;5013574;28;20499;-87
2023/10/17 04:36:26;;;;;;;56.80;31.43;;;1.20;99.90;;;;;;5014274;28;20464;-86
2023/10/17 04:39:11;;;;;;;29.43;17.40;;;1.20;99.90;;;;;;5016030;28;21075;-86
2023/10/17 04:44:19;;;;;;;16.67;11.27;;;1.10;99.90;;;;;;5013687;28;20109;-86
2023/10/17 04:46:50;;;;;;;15.17;12.03;;;1.10;99.90;;;;;;5014930;28;20030;-87
2023/10/17 04:49:21;;;;;;;17.10;11.53;;;1.10;99.90;;;;;;5024671;28;20054;-87
2023/10/17 04:52:21;;;;;;;20.73;14.00;;;1.10;99.90;;;;;;5017753;28;20672;-87
2023/10/17 04:54:39;;;;;;;22.97;15.90;;;1.10;99.90;;;;;;5011103;28;20091;-87
2023/10/17 04:57:15;;;;;;;26.70;17.30;;;1.10;99.90;;;;;;5014779;28;20033;-87
2023/10/17 06:18:52;;;;;;;39.13;19.63;;;2.30;99.90;;;;;;5012670;28;20451;-85
2023/10/17 06:21:19;;;;;;;44.80;22.60;;;2.30;99.90;;;;;;5017249;28;20036;-85
2023/10/17 06:26:58;;;;;;;37.30;20.85;;;2.30;99.90;;;;;;5016689;28;20033;-86
2023/10/17 06:32:15;;;;;;;36.13;20.73;;;2.40;99.90;;;;;;5023811;28;20093;-86
2023/10/17 06:34:42;;;;;;;53.90;19.47;;;2.40;99.90;;;;;;5032081;28;20041;-87
2023/10/17 06:37:09;;;;;;;36.27;21.53;;;2.40;99.90;;;;;;5040669;28;20048;-85
2023/10/17 06:39:36;;;;;;;34.03;20.53;;;2.40;99.90;;;;;;5045632;28;20064;-84
2023/10/17 06:42:15;;;;;;;37.80;21.20;;;2.50;99.90;;;;;;5020609;28;20065;-85
2023/10/17 06:47:48;;;;;;;34.03;20.33;;;2.60;99.90;;;;;;4993873;28;20067;-85
2023/10/17 06:56:04;;;;;;;36.23;21.60;;;2.70;99.90;;;;;;5015683;28;20048;-85
2023/10/17 06:58:10;;;;;;;40.37;21.87;;;2.80;99.90;;;;;;5001703;28;20042;-86
2023/10/17 07:00:49;;;;;;;39.63;21.93;;;2.90;99.90;;;;;;5009657;28;20076;-85
2023/10/17 07:03:16;;;;;;;36.37;22.03;;;2.90;99.90;;;;;;5009969;28;20029;-86
2023/10/17 07:05:49;;;;;;;43.80;24.50;;;3.00;99.90;;;;;;5009778;28;20025;-86
2023/10/17 07:08:19;;;;;;;39.47;22.43;;;3.10;99.90;;;;;;5010696;28;20046;-85
2023/10/17 07:11:47;;;;;;;40.30;20.77;;;3.10;99.90;;;;;;5011476;28;20388;-87
2023/10/17 07:16:34;;;;;;;38.43;21.70;;;3.20;99.90;;;;;;5010036;28;20089;-87
2023/10/17 07:24:37;;;;;;;35.77;21.00;;;3.40;99.90;;;;;;5011627;28;20248;-86
2023/10/17 07:27:04;;;;;;;34.27;20.17;;;3.40;99.90;;;;;;5011415;28;20021;-86
2023/10/17 07:29:33;;;;;;;35.27;20.93;;;3.50;99.90;;;;;;5011209;28;20388;-86
2023/10/17 07:32:16;;;;;;;32.70;20.47;;;3.60;99.90;;;;;;5009284;28;20033;-86
2023/10/17 07:34:43;;;;;;;36.43;20.90;;;3.60;99.90;;;;;;5011592;28;20026;-88
2023/10/17 07:39:39;;;;;;;38.63;23.27;;;3.70;99.90;;;;;;5007830;28;20044;-87
2023/10/17 07:42:14;;;;;;;37.67;23.50;;;3.70;99.90;;;;;;4989916;28;20712;-87
2023/10/17 07:44:41;;;;;;;37.13;22.08;;;3.80;99.90;;;;;;5009513;28;20033;-87
2023/10/17 07:49:38;;;;;;;37.17;22.57;;;3.90;99.90;;;;;;5008402;28;20110;-88
2023/10/17 07:52:22;;;;;;;35.67;21.83;;;3.90;99.90;;;;;;5006717;28;20048;-87
2023/10/17 07:55:17;;;;;;;28.57;18.70;;;4.00;99.90;;;;;;5006587;28;20049;-87
2023/10/17 07:57:43;;;;;;;25.63;17.63;;;4.10;99.90;;;;;;5006786;28;20163;-88
2023/10/17 08:03:06;;;;;;;25.77;17.87;;;4.20;99.90;;;;;;5005926;28;20117;-88
2023/10/17 08:05:44;;;;;;;24.93;16.70;;;4.30;99.90;;;;;;5007993;28;20087;-89
2023/10/17 08:08:14;;;;;;;27.60;18.53;;;4.30;99.90;;;;;;5008984;28;20045;-89
2023/10/17 08:10:46;;;;;;;26.97;20.17;;;4.40;99.90;;;;;;5008073;28;20061;-88
2023/10/17 08:13:12;;;;;;;27.97;20.57;;;4.50;99.90;;;;;;5006758;28;20026;-88
2023/10/17 08:15:53;;;;;;;25.93;17.80;;;4.60;99.90;;;;;;5008779;28;20041;-88
2023/10/17 08:18:22;;;;;;;25.70;18.63;;;4.70;99.90;;;;;;5006739;28;20030;-89
2023/10/17 08:23:25;;;;;;;27.07;17.60;;;4.80;99.90;;;;;;5006226;28;20586;-91
2023/10/17 08:25:59;;;;;;;25.80;18.10;;;4.90;99.90;;;;;;5007219;28;20400;-90
2023/10/17 08:28:33;;;;;;;28.73;17.43;;;4.90;99.90;;;;;;5008053;28;20492;-88
2023/10/17 08:32:02;;;;;;;31.33;18.20;;;5.00;99.90;;;;;;5007319;28;20496;-88
2023/10/17 08:36:49;;;;;;;24.63;18.43;;;5.00;99.90;;;;;;5006659;28;20034;-90
2023/10/17 08:42:00;;;;;;;23.30;17.17;;;5.00;99.90;;;;;;5006197;28;20047;-88
2023/10/17 08:44:32;;;;;;;24.13;16.80;;;5.00;99.90;;;;;;5006677;28;20022;-89
2023/10/17 08:46:58;;;;;;;27.23;16.93;;;5.00;99.90;;;;;;5007830;28;20037;-88
2023/10/17 08:49:27;;;;;;;27.87;17.63;;;5.10;99.90;;;;;;5008288;28;20033;-88
2023/10/17 08:51:56;;;;;;;24.70;16.40;;;5.10;99.90;;;;;;5005049;28;20038;-88
2023/10/17 08:54:28;;;;;;;22.97;16.60;;;5.10;99.90;;;;;;5006494;28;20033;-89
2023/10/17 08:56:54;;;;;;;26.60;16.03;;;5.10;99.90;;;;;;5007477;28;20033;-89
2023/10/17 09:02:15;;;;;;;25.50;18.43;;;5.30;99.90;;;;;;5005609;28;20103;-88
2023/10/17 09:04:43;;;;;;;25.70;17.63;;;5.30;99.90;;;;;;5013255;28;20063;-89
2023/10/17 09:07:09;;;;;;;22.43;17.37;;;5.40;99.90;;;;;;5010029;28;20034;-89
2023/10/17 09:09:35;;;;;;;28.30;19.13;;;5.40;99.90;;;;;;5011719;28;20041;-88
2023/10/17 09:12:01;;;;;;;28.50;19.73;;;5.50;99.90;;;;;;5005960;28;20030;-88
2023/10/17 09:14:29;;;;;;;35.33;25.63;;;5.60;99.90;;;;;;5007635;28;20180;-89
2023/10/17 09:17:13;;;;;;;39.10;25.03;;;5.70;99.90;;;;;;5007255;28;20665;-89
2023/10/17 09:19:46;;;;;;;26.30;19.50;;;5.70;99.90;;;;;;5009283;28;20033;-88
2023/10/17 09:22:17;;;;;;;30.57;23.40;;;5.80;99.90;;;;;;5010581;28;21986;-88
2023/10/17 09:24:48;;;;;;;39.37;28.47;;;5.90;99.90;;;;;;5010244;28;20083;-90
2023/10/17 09:27:14;;;;;;;82.10;54.43;;;5.90;99.90;;;;;;5015261;28;20029;-90
2023/10/17 09:29:55;;;;;;;39.90;25.57;;;5.90;99.90;;;;;;5023135;28;20022;-91
2023/10/17 09:32:32;;;;;;;48.33;30.57;;;5.90;99.90;;;;;;5042466;28;20013;-91
2023/10/17 09:35:11;;;;;;;27.47;18.70;;;6.00;99.90;;;;;;5047912;28;20056;-90
2023/10/17 09:37:39;;;;;;;29.70;19.33;;;6.10;99.90;;;;;;5016622;28;20037;-78
2023/10/17 09:40:12;;;;;;;26.63;17.90;;;6.10;99.90;;;;;;5008744;28;20239;-88
2023/10/17 09:42:40;;;;;;;28.47;18.53;;;6.20;99.90;;;;;;5009232;28;20018;-88
2023/10/17 09:45:07;;;;;;;25.17;19.80;;;6.30;99.90;;;;;;5007749;28;20105;-88
2023/10/17 09:47:38;;;;;;;24.73;17.30;;;6.40;99.90;;;;;;5008021;28;20048;-88
2023/10/17 09:50:08;;;;;;;26.67;16.93;;;6.50;99.90;;;;;;5005376;28;20091;-88
2023/10/17 09:52:34;;;;;;;20.87;16.53;;;6.70;99.90;;;;;;5004457;28;20034;-88
2023/10/17 09:55:06;;;;;;;22.10;17.73;;;6.80;99.90;;;;;;5005426;28;20048;-88
2023/10/17 09:57:35;;;;;;;23.70;17.60;;;6.70;99.90;;;;;;4987476;28;20049;-88
2023/10/17 10:00:06;;;;;;;23.97;16.97;;;6.70;99.90;;;;;;5007700;28;20052;-88
2023/10/17 10:02:36;;;;;;;22.10;16.97;;;6.80;99.90;;;;;;5004857;28;20143;-87
2023/10/17 10:05:25;;;;;;;22.27;16.20;;;6.90;99.90;;;;;;5009533;28;20037;-88
2023/10/17 10:07:55;;;;;;;26.83;17.20;;;7.00;99.90;;;;;;5013125;28;20034;-87
2023/10/17 10:10:42;;;;;;;23.80;17.17;;;7.00;99.90;;;;;;5013555;28;20018;-88
2023/10/17 10:13:13;;;;;;;22.90;15.70;;;7.10;99.90;;;;;;5011643;28;20071;-89
2023/10/17 10:16:04;;;;;;;25.40;16.60;;;7.10;99.90;;;;;;5010747;28;20041;-88
2023/10/17 10:18:35;;;;;;;24.07;18.03;;;7.20;99.90;;;;;;5011507;28;20036;-89
2023/10/17 10:21:02;;;;;;;21.90;16.00;;;7.30;99.90;;;;;;5011599;28;20060;-88
2023/10/17 10:23:35;;;;;;;28.00;19.57;;;7.40;99.90;;;;;;5013301;28;20407;-88
2023/10/17 10:26:12;;;;;;;25.20;15.83;;;7.50;99.90;;;;;;5012136;28;20492;-88
2023/10/17 10:28:38;;;;;;;23.30;15.50;;;7.60;99.90;;;;;;5031950;28;20025;-89
2023/10/17 10:31:39;;;;;;;21.30;15.47;;;7.70;99.90;;;;;;5014598;28;20030;-88
2023/10/17 10:34:06;;;;;;;21.47;15.10;;;7.90;99.90;;;;;;4936226;28;20368;-88
2023/10/17 10:36:33;;;;;;;21.60;16.03;;;7.90;99.90;;;;;;4998431;28;20067;-87
2023/10/17 10:39:12;;;;;;;21.93;15.10;;;8.20;99.90;;;;;;5013906;28;20049;-88
2023/10/17 10:41:54;;;;;;;19.87;15.07;;;8.30;99.90;;;;;;5016186;28;20037;-88
2023/10/17 10:44:20;;;;;;;23.37;15.47;;;8.40;99.90;;;;;;5014910;28;20036;-88
2023/10/17 10:46:46;;;;;;;21.17;15.40;;;8.70;99.90;;;;;;5014024;28;20034;-89
2023/10/17 10:49:11;;;;;;;21.30;16.20;;;8.80;99.90;;;;;;5018257;28;20020;-89
2023/10/17 10:51:37;;;;;;;20.30;15.57;;;8.80;99.90;;;;;;5012833;28;20500;-89
2023/10/17 10:54:03;;;;;;;20.87;14.90;;;8.90;99.90;;;;;;5009092;28;20033;-89
2023/10/17 10:56:28;;;;;;;19.33;13.93;;;9.00;99.90;;;;;;5012712;28;20069;-89
2023/10/17 10:58:55;;;;;;;20.43;15.70;;;9.10;99.90;;;;;;5009046;28;20068;-86
2023/10/17 11:01:22;;;;;;;22.77;15.57;;;9.20;99.90;;;;;;5011067;28;20073;-89
2023/10/17 11:03:50;;;;;;;22.80;15.03;;;9.30;99.90;;;;;;5010771;28;20312;-88
2023/10/17 11:06:23;;;;;;;21.07;16.13;;;9.20;99.90;;;;;;5014816;28;20073;-89
2023/10/17 11:08:49;;;;;;;20.07;14.47;;;9.20;99.90;;;;;;5010961;28;20032;-90
2023/10/17 11:11:16;;;;;;;30.10;20.63;;;9.20;99.90;;;;;;5010398;28;20034;-89
2023/10/17 11:13:45;;;;;;;49.53;25.83;;;9.30;99.90;;;;;;5009500;28;20432;-90
2023/10/17 11:16:12;;;;;;;24.50;16.77;;;9.30;99.90;;;;;;5006539;28;20041;-90
2023/10/17 11:18:39;;;;;;;20.07;14.80;;;9.40;99.90;;;;;;5006976;28;20029;-88
2023/10/17 11:21:08;;;;;;;23.00;15.53;;;9.50;99.90;;;;;;5008498;28;20061;-89
2023/10/17 11:23:37;;;;;;;18.77;14.23;;;9.70;99.90;;;;;;5005673;28;20684;-89
2023/10/17 11:26:07;;;;;;;19.40;15.20;;;9.70;99.90;;;;;;5007234;28;20034;-90
2023/10/17 11:28:33;;;;;;;19.33;14.37;;;9.70;99.90;;;;;;5008168;28;20111;-90
2023/10/17 11:31:05;;;;;;;22.03;14.37;;;9.60;99.90;;;;;;5007084;28;20133;-89
2023/10/17 11:33:47;;;;;;;20.57;14.47;;;9.50;99.90;;;;;;5007263;28;20026;-89
2023/10/17 11:36:19;;;;;;;19.60;13.70;;;9.50;99.90;;;;;;5007057;28;20036;-89
2023/10/17 11:38:53;;;;;;;20.47;14.17;;;9.50;99.90;;;;;;5009341;28;21591;-90
2023/10/17 11:41:19;;;;;;;16.57;12.90;;;9.40;99.90;;;;;;5006148;28;20036;-90
2023/10/17 11:43:51;;;;;;;17.57;13.37;;;9.60;99.90;;;;;;5003751;28;20037;-89
2023/10/17 11:46:30;;;;;;;17.67;12.40;;;9.60;99.90;;;;;;5004038;28;20037;-88
2023/10/17 11:49:20;;;;;;;19.20;14.20;;;9.70;99.90;;;;;;5008252;28;20039;-90
2023/10/17 11:52:05;;;;;;;18.43;13.00;;;9.70;99.90;;;;;;5010772;28;20062;-88
2023/10/17 11:54:32;;;;;;;60.10;39.88;;;9.60;99.90;;;;;;5008685;28;20048;-90
2023/10/17 11:57:16;;;;;;;23.57;16.07;;;9.40;99.90;;;;;;5006642;28;20038;-89
2023/10/17 11:59:54;;;;;;;21.23;16.30;;;9.40;99.90;;;;;;5008253;28;20030;-89
2023/10/17 12:02:20;;;;;;;22.03;15.17;;;9.30;99.90;;;;;;5010448;28;20041;-89
2023/10/17 12:04:45;;;;;;;16.90;13.07;;;9.30;99.90;;;;;;5007317;28;20032;-89
2023/10/17 12:07:11;;;;;;;36.40;22.17;;;9.40;99.90;;;;;;5008777;28;20040;-89
2023/10/17 12:09:36;;;;;;;21.40;15.77;;;9.40;99.90;;;;;;5006983;28;20353;-88
2023/10/17 12:12:02;;;;;;;31.73;18.90;;;9.30;99.90;;;;;;5008743;28;20506;-89
2023/10/17 12:14:28;;;;;;;16.60;12.23;;;9.30;99.90;;;;;;5009144;28;20036;-91
2023/10/17 12:16:54;;;;;;;16.23;12.00;;;9.40;99.90;;;;;;5012272;28;20022;-90
2023/10/17 12:19:28;;;;;;;15.93;11.77;;;9.40;99.90;;;;;;5015961;28;20515;-91
2023/10/17 12:21:54;;;;;;;15.97;12.77;;;9.40;99.90;;;;;;5014640;28;20041;-91
2023/10/17 12:24:24;;;;;;;57.77;41.07;;;9.40;99.90;;;;;;5019538;28;20029;-89
2023/10/17 12:26:52;;;;;;;14.33;11.87;;;9.40;99.90;;;;;;5035200;28;20038;-92
2023/10/17 12:29:19;;;;;;;19.90;12.20;;;9.40;99.90;;;;;;5050129;28;20009;-89
2023/10/17 12:31:45;;;;;;;20.97;15.37;;;9.40;99.90;;;;;;5050706;28;20021;-91
2023/10/17 12:34:15;;;;;;;17.00;11.40;;;9.30;99.90;;;;;;5021681;28;20040;-87
2023/10/17 12:36:41;;;;;;;55.87;37.97;;;9.30;99.90;;;;;;5012492;28;20049;-89
2023/10/17 12:39:07;;;;;;;21.83;15.07;;;9.20;99.90;;;;;;5010413;28;20029;-89
2023/10/17 12:41:35;;;;;;;14.77;11.37;;;9.20;99.90;;;;;;5010610;28;20036;-90
2023/10/17 12:44:01;;;;;;;18.13;12.17;;;9.20;99.90;;;;;;5015438;28;20088;-92
2023/10/17 12:46:26;;;;;;;22.23;16.17;;;9.20;99.90;;;;;;5012619;28;20481;-88
2023/10/17 12:48:52;;;;;;;16.47;11.70;;;9.20;99.90;;;;;;5008696;28;20025;-88
2023/10/17 12:51:20;;;;;;;15.63;11.63;;;9.20;99.90;;;;;;5008984;28;20025;-89
2023/10/17 12:53:46;;;;;;;19.67;13.17;;;9.30;99.90;;;;;;5005947;28;20120;-90
2023/10/17 12:56:12;;;;;;;33.70;22.53;;;9.30;99.90;;;;;;5006103;28;20033;-90
2023/10/17 12:58:38;;;;;;;18.23;12.97;;;9.20;99.90;;;;;;5009533;28;20124;-89
2023/10/17 13:01:07;;;;;;;15.43;11.13;;;9.20;99.90;;;;;;5008633;28;20037;-90
2023/10/17 13:03:37;;;;;;;14.20;10.67;;;9.20;99.90;;;;;;5008834;28;20120;-89
2023/10/17 13:06:06;;;;;;;57.50;33.00;;;9.30;99.90;;;;;;5011015;28;21138;-89
2023/10/17 13:08:32;;;;;;;20.83;11.97;;;9.20;99.90;;;;;;5011916;28;20076;-91
2023/10/17 13:10:58;;;;;;;28.43;17.40;;;9.20;99.90;;;;;;5010908;28;20017;-90
2023/10/17 13:13:24;;;;;;;14.20;10.90;;;9.20;99.90;;;;;;5007923;28;20037;-88
2023/10/17 13:15:50;;;;;;;26.90;17.30;;;9.20;99.90;;;;;;5004404;28;20033;-90
2023/10/17 13:18:16;;;;;;;26.00;17.40;;;9.20;99.90;;;;;;5007699;28;20045;-88
2023/10/17 13:20:48;;;;;;;49.50;29.67;;;9.20;99.90;;;;;;5004139;28;20041;-88
2023/10/17 13:23:17;;;;;;;18.10;11.80;;;9.20;99.90;;;;;;5013786;28;20150;-89
2023/10/17 13:25:44;;;;;;;21.80;14.30;;;9.20;99.90;;;;;;5001707;28;20120;-89
2023/10/17 13:28:10;;;;;;;18.87;12.07;;;9.20;99.90;;;;;;5007841;28;20026;-88
2023/10/17 13:30:36;;;;;;;15.10;11.20;;;9.20;99.90;;;;;;5005299;28;20025;-89
2023/10/17 13:33:02;;;;;;;14.33;10.50;;;9.20;99.90;;;;;;5009275;28;20029;-89
2023/10/17 13:35:28;;;;;;;17.60;10.70;;;9.20;99.90;;;;;;5005259;28;20530;-90
2023/10/17 13:37:55;;;;;;;14.47;10.13;;;9.20;99.90;;;;;;5007044;28;20033;-89
2023/10/17 13:40:23;;;;;;;14.43;10.20;;;9.30;99.90;;;;;;5010131;28;20038;-89
2023/10/17 13:42:50;;;;;;;14.43;9.23;;;9.30;99.90;;;;;;5007929;28;20504;-88
2023/10/17 13:45:17;;;;;;;14.80;10.13;;;9.30;99.90;;;;;;5004987;28;20036;-89
2023/10/17 13:47:43;;;;;;;12.37;9.43;;;9.30;99.90;;;;;;5006026;28;21153;-89
2023/10/17 13:50:13;;;;;;;13.77;8.90;;;9.30;99.90;;;;;;5007681;28;20030;-89
2023/10/17 13:52:42;;;;;;;13.63;9.23;;;9.30;99.90;;;;;;5008946;28;20065;-89
2023/10/17 13:55:14;;;;;;;12.73;9.27;;;9.30;99.90;;;;;;5009608;28;20037;-91
2023/10/17 13:57:42;;;;;;;13.33;8.60;;;9.30;99.90;;;;;;5012900;28;20040;-89
2023/10/17 14:00:21;;;;;;;15.20;10.20;;;9.30;99.90;;;;;;5013974;28;20022;-89
2023/10/17 14:02:47;;;;;;;12.60;9.90;;;9.30;99.90;;;;;;5013958;28;20053;-88
2023/10/17 14:05:13;;;;;;;11.90;8.70;;;9.40;99.90;;;;;;5013706;28;20064;-90
2023/10/17 14:07:39;;;;;;;11.87;8.63;;;9.40;99.90;;;;;;5009730;28;20117;-89
2023/10/17 14:10:12;;;;;;;11.07;8.47;;;9.40;99.90;;;;;;5006954;28;20026;-89
2023/10/17 14:12:40;;;;;;;12.07;8.40;;;9.40;99.90;;;;;;5005343;28;20034;-89
2023/10/17 14:15:09;;;;;;;11.30;8.40;;;9.40;99.90;;;;;;5004293;28;20496;-89
2023/10/17 14:17:36;;;;;;;13.77;8.87;;;9.40;99.90;;;;;;4987789;28;20780;-90
2023/10/17 14:20:28;;;;;;;15.87;8.73;;;9.40;99.90;;;;;;5008497;28;20045;-91
2023/10/17 14:23:11;;;;;;;10.73;7.70;;;9.40;99.90;;;;;;5007458;28;20136;-90
2023/10/17 14:28:21;;;;;;;12.70;8.47;;;9.50;99.90;;;;;;5008349;28;20060;-90
2023/10/17 14:30:48;;;;;;;15.57;9.67;;;9.50;99.90;;;;;;5008900;28;20069;-89
2023/10/17 14:33:14;;;;;;;16.80;8.97;;;9.50;99.90;;;;;;5004713;28;20095;-89
2023/10/17 14:35:39;;;;;;;10.10;8.00;;;9.50;99.90;;;;;;5004766;28;21505;-89
2023/10/17 14:38:05;;;;;;;12.80;7.90;;;9.50;99.90;;;;;;5007320;28;20143;-89
2023/10/17 14:40:31;;;;;;;13.17;8.33;;;9.50;99.90;;;;;;5013214;28;20089;-89
2023/10/17 14:42:57;;;;;;;12.73;7.77;;;9.50;99.90;;;;;;5010750;28;20026;-88
2023/10/17 14:45:25;;;;;;;14.53;7.53;;;9.50;99.90;;;;;;5009803;28;20037;-89
2023/10/17 14:47:51;;;;;;;11.50;8.43;;;9.40;99.90;;;;;;5011245;28;20068;-90
2023/10/17 14:50:18;;;;;;;9.30;7.50;;;9.40;99.90;;;;;;5010096;28;20103;-88
2023/10/17 14:52:43;;;;;;;14.37;8.17;;;9.40;99.90;;;;;;5011107;28;20037;-89
2023/10/17 14:55:14;;;;;;;11.97;7.73;;;9.40;99.90;;;;;;5008554;28;21369;-90
2023/10/17 14:57:45;;;;;;;11.17;7.63;;;9.30;99.90;;;;;;5010872;28;20704;-89
2023/10/17 15:00:13;;;;;;;12.83;8.53;;;9.30;99.90;;;;;;5010300;28;20128;-89
2023/10/17 15:02:39;;;;;;;13.87;9.60;;;9.30;99.90;;;;;;5008179;28;20930;-89
2023/10/17 15:05:07;;;;;;;14.07;8.67;;;9.20;99.90;;;;;;5006816;28;20045;-89
2023/10/17 15:07:33;;;;;;;12.53;8.43;;;9.20;99.90;;;;;;5010638;28;20063;-90
2023/10/17 15:09:59;;;;;;;15.47;8.27;;;9.20;99.90;;;;;;5010905;28;20030;-90
2023/10/17 15:12:25;;;;;;;11.33;9.03;;;9.10;99.90;;;;;;5012873;28;20566;-90
2023/10/17 15:14:51;;;;;;;14.43;9.30;;;9.10;99.90;;;;;;5011248;28;20424;-90